createdAt,value
2023-02-17T06:37:03.788Z,10.23
2023-02-17T06:41:11.920Z,10.28
2023-02-17T06:42:14.139Z,10.26
2023-02-17T06:43:16.157Z,10.26
2023-02-17T06:44:18.197Z,10.26
2023-02-17T06:45:20.232Z,10.26
2023-02-17T06:46:22.248Z,10.26
2023-02-17T06:47:24.281Z,10.25
2023-02-17T06:48:26.300Z,10.28
2023-02-17T06:49:28.320Z,10.30
2023-02-17T06:50:30.346Z,10.28
2023-02-17T06:51:32.391Z,10.26
2023-02-17T06:52:34.407Z,10.30
2023-02-17T06:53:36.433Z,10.28
2023-02-17T06:54:38.467Z,10.26
2023-02-17T06:55:40.498Z,10.28
2023-02-17T06:56:42.539Z,10.31
2023-02-17T06:57:44.550Z,10.30
2023-02-17T06:58:46.565Z,10.31
2023-02-17T06:59:48.588Z,10.33
2023-02-17T07:00:50.618Z,10.35
2023-02-17T07:01:52.718Z,10.33
2023-02-17T07:02:54.838Z,10.35
2023-02-17T07:03:56.941Z,10.38
2023-02-17T07:04:58.967Z,10.38
2023-02-17T07:06:00.997Z,10.38
2023-02-17T07:07:03.029Z,10.38
2023-02-17T07:08:05.061Z,10.42
2023-02-17T07:09:07.096Z,10.46
2023-02-17T07:10:09.118Z,10.46
2023-02-17T07:11:11.143Z,10.49
2023-02-17T07:12:13.186Z,10.48
2023-02-17T07:13:15.226Z,10.49
2023-02-17T07:14:17.304Z,10.48
2023-02-17T07:15:19.368Z,10.49
2023-02-17T07:16:21.439Z,10.49
2023-02-17T07:17:23.456Z,10.49
2023-02-17T07:18:25.477Z,10.49
2023-02-17T07:19:27.504Z,10.49
2023-02-17T07:20:29.542Z,10.48
2023-02-17T07:21:31.559Z,10.49
2023-02-17T07:22:33.607Z,10.53
2023-02-17T07:23:35.629Z,10.46
2023-02-17T07:24:37.671Z,10.46
2023-02-17T07:25:39.695Z,10.46
2023-02-17T07:26:41.710Z,10.46
2023-02-17T07:27:43.751Z,10.44
2023-02-17T07:28:45.778Z,10.46
2023-02-17T07:29:47.796Z,10.48
2023-02-17T07:30:49.878Z,10.48
2023-02-17T07:31:51.905Z,10.49
2023-02-17T07:32:53.936Z,10.53
2023-02-17T07:33:55.962Z,10.52
2023-02-17T07:34:57.974Z,10.50
2023-02-17T07:36:00.003Z,10.52
2023-02-17T07:37:02.012Z,10.53
2023-02-17T07:38:04.084Z,10.50
2023-02-17T07:39:06.103Z,10.53
2023-02-17T07:40:08.147Z,10.52
2023-02-17T07:41:10.203Z,10.50
2023-02-17T07:42:12.241Z,10.49
2023-02-17T07:43:14.285Z,10.49
2023-02-17T07:44:16.349Z,10.52
2023-02-17T07:45:18.347Z,10.55
2023-02-17T07:46:20.396Z,10.52
2023-02-17T07:47:22.400Z,10.55
2023-02-17T07:48:24.449Z,10.58
2023-02-17T07:49:26.462Z,10.56
2023-02-17T07:50:28.524Z,10.60
2023-02-17T07:51:30.540Z,10.60
2023-02-17T07:52:32.579Z,10.60
2023-02-17T07:53:34.636Z,10.67
2023-02-17T07:54:36.674Z,10.66
2023-02-17T07:55:38.672Z,10.66
2023-02-17T07:56:40.711Z,10.63
2023-02-17T07:57:42.726Z,10.68
2023-02-17T07:58:44.809Z,10.68
2023-02-17T07:59:46.851Z,10.68
2023-02-17T08:00:48.873Z,10.71
2023-02-17T08:01:50.950Z,10.70
2023-02-17T08:02:52.961Z,10.73
2023-02-17T08:03:55.025Z,10.71
2023-02-17T08:04:57.040Z,10.74
2023-02-17T08:05:59.064Z,10.75
2023-02-17T08:07:01.108Z,10.77
2023-02-17T08:08:03.121Z,10.83
2023-02-17T08:09:05.165Z,10.86
2023-02-17T08:10:07.200Z,10.92
2023-02-17T08:11:09.484Z,10.93
2023-02-17T08:12:10.448Z,10.98
2023-02-17T08:13:12.491Z,10.99
2023-02-17T08:14:14.542Z,11.03
2023-02-17T08:15:16.592Z,11.03
2023-02-17T08:16:18.642Z,11.06
2023-02-17T08:17:20.670Z,11.04
2023-02-17T08:18:36.274Z,11.06
2023-02-17T08:19:24.280Z,11.09
2023-02-17T08:20:26.296Z,11.03
2023-02-17T08:21:28.334Z,11.04
2023-02-17T08:22:30.386Z,11.06
2023-02-17T08:23:32.413Z,11.09
2023-02-17T08:24:34.450Z,11.13
2023-02-17T08:25:36.487Z,11.11
2023-02-17T08:26:38.538Z,11.10
2023-02-17T08:27:40.579Z,11.11
2023-02-17T08:28:42.642Z,11.16
2023-02-17T08:29:44.696Z,11.16
2023-02-17T08:30:46.872Z,11.13
2023-02-17T08:31:47.931Z,11.22
2023-02-17T08:32:49.969Z,11.27
2023-02-17T08:33:51.996Z,11.29
2023-02-17T08:34:54.017Z,11.32
2023-02-17T08:35:56.057Z,11.37
2023-02-17T08:36:58.068Z,11.36
2023-02-17T08:38:00.141Z,11.40
2023-02-17T08:39:02.135Z,11.40
2023-02-17T08:40:04.179Z,11.35
2023-02-17T08:41:06.204Z,11.33
2023-02-17T08:42:08.233Z,11.35
2023-02-17T08:43:10.275Z,11.33
2023-02-17T08:44:12.291Z,11.40
2023-02-17T08:45:14.326Z,11.45
2023-02-17T08:46:16.391Z,11.48
2023-02-17T08:47:18.457Z,11.50
2023-02-17T08:48:20.504Z,11.48
2023-02-17T08:49:22.520Z,11.45
2023-02-17T08:50:24.574Z,11.43
2023-02-17T08:51:26.633Z,11.44
2023-02-17T08:52:28.681Z,11.51
2023-02-17T08:53:30.724Z,11.55
2023-02-17T08:54:32.701Z,11.60
2023-02-17T08:55:47.530Z,11.62
2023-02-17T08:56:36.182Z,11.66
2023-02-17T08:57:38.337Z,11.68
2023-02-17T08:58:40.422Z,11.72
2023-02-17T08:59:42.472Z,11.77
2023-02-17T09:00:44.521Z,11.73
2023-02-17T09:01:46.577Z,11.72
2023-02-17T09:02:48.691Z,11.68
2023-02-17T09:03:50.777Z,11.66
2023-02-17T09:04:52.778Z,11.62
2023-02-17T09:05:54.866Z,11.55
2023-02-17T09:06:56.037Z,11.52
2023-02-17T09:07:58.054Z,11.50
2023-02-17T09:09:00.693Z,11.50
2023-02-17T09:10:01.621Z,11.50
2023-02-17T09:11:03.642Z,11.51
2023-02-17T09:12:05.676Z,11.51
2023-02-17T09:13:07.716Z,11.50
2023-02-17T09:14:09.742Z,11.52
2023-02-17T09:15:11.756Z,11.51
2023-02-17T09:16:13.866Z,11.51
2023-02-17T09:17:15.912Z,11.52
2023-02-17T09:18:17.994Z,11.54
2023-02-17T09:19:19.984Z,11.52
2023-02-17T09:20:28.727Z,11.50
2023-02-17T09:21:23.493Z,11.47
2023-02-17T09:22:31.988Z,11.43
2023-02-17T09:23:27.003Z,11.37
2023-02-17T09:24:29.017Z,11.36
2023-02-17T09:25:31.065Z,11.35
2023-02-17T09:26:33.117Z,11.35
2023-02-17T09:27:35.158Z,11.40
2023-02-17T09:28:37.168Z,11.41
2023-02-17T09:29:39.218Z,11.43
2023-02-17T09:30:41.304Z,11.43
2023-02-17T09:31:43.514Z,11.41
2023-02-17T09:32:44.450Z,11.45
2023-02-17T09:33:47.401Z,11.47
2023-02-17T09:34:48.335Z,11.50
2023-02-17T09:35:50.364Z,11.55
2023-02-17T09:36:52.401Z,11.62
2023-02-17T09:37:54.442Z,11.63
2023-02-17T09:38:56.466Z,11.65
2023-02-17T09:39:58.496Z,11.75
2023-02-17T09:41:00.562Z,11.81
2023-02-17T09:42:02.657Z,11.83
2023-02-17T09:43:04.649Z,11.86
2023-02-17T09:44:06.703Z,11.83
2023-02-17T09:45:08.726Z,11.81
2023-02-17T09:46:10.880Z,11.84
2023-02-17T09:47:13.053Z,11.84
2023-02-17T09:48:15.101Z,11.83
2023-02-17T09:49:17.090Z,11.83
2023-02-17T09:50:19.146Z,11.78
2023-02-17T09:51:21.146Z,11.77
2023-02-17T09:52:23.209Z,11.73
2023-02-17T09:53:25.243Z,11.75
2023-02-17T09:54:27.330Z,11.73
2023-02-17T09:55:29.328Z,11.75
2023-02-17T09:56:33.491Z,11.72
2023-02-17T09:57:33.434Z,11.72
2023-02-17T09:58:35.467Z,11.75
2023-02-17T09:59:37.507Z,11.77
2023-02-17T10:00:39.520Z,11.78
2023-02-17T10:01:41.556Z,11.73
2023-02-17T10:02:43.618Z,11.73
2023-02-17T10:03:45.712Z,11.73
2023-02-17T10:04:47.780Z,11.75
2023-02-17T10:05:49.860Z,11.75
2023-02-17T10:06:51.881Z,11.81
2023-02-17T10:07:53.955Z,11.80
2023-02-17T10:08:55.922Z,11.75
2023-02-17T10:09:57.963Z,11.73
2023-02-17T10:11:00.005Z,11.70
2023-02-17T10:12:02.049Z,11.69
2023-02-17T10:13:04.094Z,11.68
2023-02-17T10:14:06.123Z,11.66
2023-02-17T10:15:08.181Z,11.69
2023-02-17T10:16:10.498Z,11.69
2023-02-17T10:17:11.575Z,11.69
2023-02-17T10:18:13.670Z,11.69
2023-02-17T10:19:15.759Z,11.70
2023-02-17T10:20:17.759Z,11.68
2023-02-17T10:21:19.776Z,11.66
2023-02-17T10:22:21.791Z,11.65
2023-02-17T10:23:23.821Z,11.63
2023-02-17T10:24:25.881Z,11.65
2023-02-17T10:25:27.865Z,11.65
2023-02-17T10:26:29.921Z,11.62
2023-02-17T10:27:31.945Z,11.60
2023-02-17T10:28:33.977Z,11.52
2023-02-17T10:29:36.018Z,11.47
2023-02-17T10:30:38.172Z,11.45
2023-02-17T10:31:40.305Z,11.44
2023-02-17T10:32:41.375Z,11.45
2023-02-17T10:33:43.415Z,11.52
2023-02-17T10:34:45.434Z,11.55
2023-02-17T10:35:47.450Z,11.60
2023-02-17T10:36:49.475Z,11.66
2023-02-17T10:37:51.496Z,11.70
2023-02-17T10:38:53.618Z,11.75
2023-02-17T10:39:55.676Z,11.80
2023-02-17T10:40:57.723Z,11.86
2023-02-17T10:41:59.744Z,11.88
2023-02-17T10:43:01.789Z,11.91
2023-02-17T10:44:03.868Z,11.94
2023-02-17T10:45:05.885Z,11.94
2023-02-17T10:46:08.249Z,11.98
2023-02-17T10:47:09.347Z,11.98
2023-02-17T10:48:11.381Z,11.99
2023-02-17T10:49:13.389Z,11.98
2023-02-17T10:50:15.433Z,11.99
2023-02-17T10:51:17.475Z,11.99
2023-02-17T10:52:19.498Z,12.02
2023-02-17T10:53:21.532Z,12.02
2023-02-17T10:54:23.592Z,12.01
2023-02-17T10:55:25.590Z,12.03
2023-02-17T10:56:27.633Z,12.05
2023-02-17T10:57:29.676Z,12.09
2023-02-17T10:58:31.710Z,12.12
2023-02-17T10:59:33.749Z,12.20
2023-02-17T11:00:35.809Z,12.23
2023-02-17T11:01:37.869Z,12.21
2023-02-17T11:02:39.910Z,12.26
2023-02-17T11:03:42.049Z,12.27
2023-02-17T11:04:44.078Z,12.31
2023-02-17T11:05:46.094Z,12.35
2023-02-17T11:06:48.118Z,12.39
2023-02-17T11:07:50.156Z,12.41
2023-02-17T11:08:52.179Z,12.45
2023-02-17T11:09:54.238Z,12.44
2023-02-17T11:10:56.261Z,12.46
2023-02-17T11:11:58.299Z,12.49
2023-02-17T11:13:00.342Z,12.53
2023-02-17T11:14:02.399Z,12.56
2023-02-17T11:15:04.397Z,12.52
2023-02-17T11:16:06.879Z,12.52
2023-02-17T11:17:07.937Z,12.46
2023-02-17T11:18:09.227Z,12.45
2023-02-17T11:19:11.280Z,12.45
2023-02-17T11:20:13.375Z,12.45
2023-02-17T11:21:15.436Z,12.44
2023-02-17T11:22:17.569Z,12.44
2023-02-17T11:23:19.591Z,12.44
2023-02-17T11:24:21.655Z,12.45
2023-02-17T11:25:23.669Z,12.45
2023-02-17T11:26:25.709Z,12.44
2023-02-17T11:27:27.729Z,12.41
2023-02-17T11:28:29.767Z,12.39
2023-02-17T11:29:31.811Z,12.38
2023-02-17T11:30:33.893Z,12.38
2023-02-17T11:31:35.994Z,12.36
2023-02-17T11:32:38.032Z,12.35
2023-02-17T11:33:40.087Z,12.41
2023-02-17T11:34:42.124Z,12.39
2023-02-17T11:35:44.211Z,12.42
2023-02-17T11:36:46.243Z,12.41
2023-02-17T11:37:48.264Z,12.44
2023-02-17T11:38:50.292Z,12.44
2023-02-17T11:39:52.344Z,12.44
2023-02-17T11:40:54.394Z,12.49
2023-02-17T11:41:56.410Z,12.49
2023-02-17T11:42:58.450Z,12.52
2023-02-17T11:44:00.473Z,12.53
2023-02-17T11:45:02.490Z,12.52
2023-02-17T11:46:04.824Z,12.54
2023-02-17T11:47:05.912Z,12.56
2023-02-17T11:48:07.932Z,12.65
2023-02-17T11:49:09.964Z,12.72
2023-02-17T11:50:11.982Z,12.76
2023-02-17T11:51:14.021Z,12.80
2023-02-17T11:52:16.057Z,12.85
2023-02-17T11:53:18.106Z,12.91
2023-02-17T11:54:20.124Z,12.93
2023-02-17T11:55:22.170Z,12.94
2023-02-17T11:56:24.206Z,12.94
2023-02-17T11:57:26.246Z,12.94
2023-02-17T11:58:28.273Z,12.97
2023-02-17T11:59:30.300Z,12.94
2023-02-17T12:00:32.315Z,12.98
2023-02-17T12:01:34.393Z,12.98
2023-02-17T12:02:36.394Z,13.04
2023-02-17T12:03:38.414Z,13.11
2023-02-17T12:04:40.494Z,13.13
2023-02-17T12:05:42.498Z,13.19
2023-02-17T12:06:44.541Z,13.19
2023-02-17T12:07:46.589Z,13.19
2023-02-17T12:08:48.600Z,13.15
2023-02-17T12:09:50.617Z,13.18
2023-02-17T12:10:52.665Z,13.19
2023-02-17T12:11:54.713Z,13.16
2023-02-17T12:12:56.734Z,13.18
2023-02-17T12:13:58.766Z,13.19
2023-02-17T12:15:00.792Z,13.22
2023-02-17T12:16:02.816Z,13.23
2023-02-17T12:17:04.840Z,13.27
2023-02-17T12:18:06.864Z,13.27
2023-02-17T12:19:08.908Z,13.27
2023-02-17T12:20:10.922Z,13.28
2023-02-17T12:21:12.949Z,13.30
2023-02-17T12:22:15.011Z,13.33
2023-02-17T12:23:17.055Z,13.34
2023-02-17T12:24:19.085Z,13.36
2023-02-17T12:25:21.126Z,13.37
2023-02-17T12:26:23.154Z,13.40
2023-02-17T12:27:25.183Z,13.37
2023-02-17T12:28:27.220Z,13.41
2023-02-17T12:29:29.235Z,13.37
2023-02-17T12:30:31.295Z,13.37
2023-02-17T12:31:33.425Z,13.31
2023-02-17T12:32:35.465Z,13.33
2023-02-17T12:33:37.529Z,13.30
2023-02-17T12:34:39.590Z,13.30
2023-02-17T12:35:41.607Z,13.23
2023-02-17T12:36:43.622Z,13.20
2023-02-17T12:37:48.152Z,13.16
2023-02-17T12:38:47.097Z,13.16
2023-02-17T12:39:49.112Z,13.18
2023-02-17T12:40:51.136Z,13.19
2023-02-17T12:41:53.153Z,13.25
2023-02-17T12:42:55.224Z,13.23
2023-02-17T12:43:57.266Z,13.23
2023-02-17T12:44:59.269Z,13.30
2023-02-17T12:46:01.347Z,13.33
2023-02-17T12:47:03.369Z,13.31
2023-02-17T12:48:05.431Z,13.33
2023-02-17T12:49:07.682Z,13.23
2023-02-17T12:50:08.611Z,13.25
2023-02-17T12:51:10.643Z,13.22
2023-02-17T12:52:12.678Z,13.23
2023-02-17T12:53:14.692Z,13.23
2023-02-17T12:54:16.710Z,13.19
2023-02-17T12:55:21.008Z,13.19
2023-02-17T12:56:19.981Z,13.19
2023-02-17T12:57:22.014Z,13.20
2023-02-17T12:58:24.064Z,13.16
2023-02-17T12:59:26.090Z,13.19
2023-02-17T13:00:28.121Z,13.16
2023-02-17T13:01:30.175Z,13.12
2023-02-17T13:02:32.269Z,13.16
2023-02-17T13:03:34.272Z,13.12
2023-02-17T13:04:36.297Z,13.13
2023-02-17T13:05:38.344Z,13.18
2023-02-17T13:06:40.388Z,13.19
2023-02-17T13:07:42.436Z,13.22
2023-02-17T13:08:44.494Z,13.25
2023-02-17T13:09:46.561Z,13.27
2023-02-17T13:10:48.575Z,13.30
2023-02-17T13:11:50.594Z,13.30
2023-02-17T13:12:52.656Z,13.33
2023-02-17T13:13:54.716Z,13.30
2023-02-17T13:14:56.734Z,13.30
2023-02-17T13:15:58.791Z,13.28
2023-02-17T13:17:00.814Z,13.25
2023-02-17T13:18:02.860Z,13.27
2023-02-17T13:19:04.911Z,13.28
2023-02-17T13:20:06.951Z,13.31
2023-02-17T13:21:08.992Z,13.30
2023-02-17T13:22:11.023Z,13.31
2023-02-17T13:23:13.037Z,13.28
2023-02-17T13:28:49.601Z,13.23
2023-02-17T13:29:52.724Z,13.28
2023-02-17T13:30:54.891Z,13.27
2023-02-17T13:31:57.025Z,13.28
2023-02-17T13:32:59.060Z,13.23
2023-02-17T13:34:01.101Z,13.25
2023-02-17T13:35:03.146Z,13.23
2023-02-17T13:36:05.538Z,13.27
2023-02-17T13:37:06.582Z,13.25
2023-02-17T13:38:08.623Z,13.27
2023-02-17T13:39:10.644Z,13.28
2023-02-17T13:40:12.736Z,13.28
2023-02-17T13:41:14.740Z,13.30
2023-02-17T13:42:19.354Z,13.30
2023-02-17T13:43:18.175Z,13.31
2023-02-17T13:44:20.213Z,13.34
2023-02-17T13:45:22.261Z,13.36
2023-02-17T13:46:24.552Z,13.34
2023-02-17T13:47:25.477Z,13.41
2023-02-17T13:48:27.525Z,13.41
2023-02-17T13:49:29.575Z,13.46
2023-02-17T13:50:31.609Z,13.46
2023-02-17T13:51:33.726Z,13.46
2023-02-17T13:52:35.788Z,13.46
2023-02-17T13:53:38.190Z,13.45
2023-02-17T13:54:39.116Z,13.46
2023-02-17T13:55:41.164Z,13.51
2023-02-17T13:56:43.211Z,13.53
2023-02-17T13:57:45.259Z,13.53
2023-02-17T13:58:47.293Z,13.59
2023-02-17T13:59:49.315Z,13.59
2023-02-17T14:00:51.363Z,13.59
2023-02-17T14:01:53.400Z,13.64
2023-02-17T14:02:55.452Z,13.64
2023-02-17T14:03:57.511Z,13.67
2023-02-17T14:04:59.620Z,13.70
2023-02-17T14:06:01.638Z,13.73
2023-02-17T14:07:03.692Z,13.70
2023-02-17T14:08:05.735Z,13.70
2023-02-17T14:09:07.776Z,13.71
2023-02-17T14:10:09.819Z,13.67
2023-02-17T14:11:11.861Z,13.73
2023-02-17T14:12:13.924Z,13.71
2023-02-17T14:13:15.965Z,13.73
2023-02-17T14:14:18.017Z,13.77
2023-02-17T14:15:20.051Z,13.76
2023-02-17T14:16:22.295Z,13.77
2023-02-17T14:17:23.251Z,13.82
2023-02-17T14:18:25.295Z,13.82
2023-02-17T14:19:27.332Z,13.85
2023-02-17T14:20:29.374Z,13.82
2023-02-17T14:21:31.416Z,13.85
2023-02-17T14:22:33.490Z,13.89
2023-02-17T14:23:35.524Z,13.89
2023-02-17T14:24:37.584Z,13.91
2023-02-17T14:25:39.621Z,13.95
2023-02-17T14:26:41.670Z,13.98
2023-02-17T14:27:43.719Z,13.99
2023-02-17T14:28:45.752Z,13.99
2023-02-17T14:29:47.808Z,14.02
2023-02-17T14:30:50.048Z,14.04
2023-02-17T14:31:51.164Z,14.07
2023-02-17T14:32:53.181Z,14.11
2023-02-17T14:33:55.223Z,14.14
2023-02-17T14:34:57.268Z,14.18
2023-02-17T14:35:59.383Z,14.23
2023-02-17T14:37:01.415Z,14.26
2023-02-17T14:38:03.465Z,14.28
2023-02-17T14:39:05.511Z,14.29
2023-02-17T14:40:07.559Z,14.30
2023-02-17T14:41:09.600Z,14.32
2023-02-17T14:42:11.628Z,14.35
2023-02-17T14:43:13.685Z,14.36
2023-02-17T14:44:15.729Z,14.40
2023-02-17T14:45:17.771Z,14.41
2023-02-17T14:46:19.965Z,14.43
2023-02-17T14:47:20.914Z,14.44
2023-02-17T14:48:22.964Z,14.41
2023-02-17T14:49:25.024Z,14.37
2023-02-17T14:50:27.081Z,14.40
2023-02-17T14:51:29.120Z,14.40
2023-02-17T14:52:31.222Z,14.41
2023-02-17T14:53:33.309Z,14.41
2023-02-17T14:54:35.363Z,14.44
2023-02-17T14:55:37.398Z,14.43
2023-02-17T14:56:39.438Z,14.36
2023-02-17T14:57:41.494Z,14.36
2023-02-17T14:58:43.550Z,14.32
2023-02-17T14:59:45.556Z,14.29
2023-02-17T15:00:47.602Z,14.30
2023-02-17T15:01:49.689Z,14.29
2023-02-17T15:02:51.723Z,14.26
2023-02-17T15:03:53.786Z,14.25
2023-02-17T15:04:56.348Z,14.23
2023-02-17T15:05:57.301Z,14.25
2023-02-17T15:06:59.312Z,14.28
2023-02-17T15:08:01.368Z,14.28
2023-02-17T15:09:03.411Z,14.23
2023-02-17T15:10:05.430Z,14.23
2023-02-17T15:11:07.492Z,14.25
2023-02-17T15:12:09.543Z,14.23
2023-02-17T15:13:11.587Z,14.20
2023-02-17T15:14:13.642Z,14.20
2023-02-17T15:15:15.692Z,14.22
2023-02-17T15:16:17.871Z,14.22
2023-02-17T15:17:19.865Z,14.22
2023-02-17T15:18:21.906Z,14.25
2023-02-17T15:19:23.960Z,14.20
2023-02-17T15:20:26.015Z,14.22
2023-02-17T15:21:28.064Z,14.20
2023-02-17T15:22:30.089Z,14.18
2023-02-17T15:23:32.114Z,14.18
2023-02-17T15:24:34.182Z,14.20
2023-02-17T15:25:36.222Z,14.23
2023-02-17T15:26:38.245Z,14.20
2023-02-17T15:27:40.275Z,14.25
2023-02-17T15:28:42.306Z,14.25
2023-02-17T15:29:44.367Z,14.23
2023-02-17T15:30:46.402Z,14.17
2023-02-17T15:31:48.630Z,14.22
2023-02-17T15:32:49.569Z,14.22
2023-02-17T15:33:51.621Z,14.23
2023-02-17T15:34:53.676Z,14.22
2023-02-17T15:35:55.727Z,14.22
2023-02-17T15:36:57.752Z,14.22
2023-02-17T15:37:59.794Z,14.18
2023-02-17T15:39:01.833Z,14.15
2023-02-17T15:40:03.884Z,14.23
2023-02-17T15:41:05.932Z,14.22
2023-02-17T15:42:07.980Z,14.26
2023-02-17T15:43:10.018Z,14.28
2023-02-17T15:44:12.059Z,14.25
2023-02-17T15:45:14.115Z,14.29
2023-02-17T15:46:16.212Z,14.26
2023-02-17T15:47:18.241Z,14.25
2023-02-17T15:48:20.275Z,14.22
2023-02-17T15:49:22.316Z,14.23
2023-02-17T15:50:24.374Z,14.22
2023-02-17T15:51:26.412Z,14.23
2023-02-17T15:52:28.448Z,14.22
2023-02-17T15:53:30.481Z,14.22
2023-02-17T15:54:32.520Z,14.22
2023-02-17T15:55:34.613Z,14.22
2023-02-17T15:56:36.635Z,14.20
2023-02-17T15:57:38.677Z,14.20
2023-02-17T15:58:40.725Z,14.22
2023-02-17T15:59:42.788Z,14.22
2023-02-17T16:00:44.852Z,14.18
2023-02-17T16:01:46.896Z,14.18
2023-02-17T16:02:48.994Z,14.18
2023-02-17T16:03:51.056Z,14.17
2023-02-17T16:04:53.151Z,14.15
2023-02-17T16:05:55.206Z,14.17
2023-02-17T16:06:57.298Z,14.15
2023-02-17T16:07:59.353Z,14.14
2023-02-17T16:09:01.439Z,14.14
2023-02-17T16:10:03.565Z,14.17
2023-02-17T16:11:05.601Z,14.18
2023-02-17T16:12:07.680Z,14.12
2023-02-17T16:13:09.728Z,14.15
2023-02-17T16:14:11.790Z,14.15
2023-02-17T16:15:14.385Z,14.15
2023-02-17T16:16:15.376Z,14.17
2023-02-17T16:17:17.380Z,14.18
2023-02-17T16:18:19.400Z,14.18
2023-02-17T16:19:21.450Z,14.15
2023-02-17T16:20:23.503Z,14.15
2023-02-17T16:21:25.552Z,14.14
2023-02-17T16:22:27.591Z,14.11
2023-02-17T16:23:29.633Z,14.08
2023-02-17T16:24:31.676Z,14.07
2023-02-17T16:25:33.720Z,14.03
2023-02-17T16:26:35.768Z,14.03
2023-02-17T16:27:37.812Z,14.02
2023-02-17T16:28:39.852Z,14.02
